createdAt,value
2019-06-08T00:01:46.963Z,27.00
2019-06-08T00:04:18.596Z,26.68
2019-06-08T00:06:49.067Z,27.95
2019-06-08T00:09:20.887Z,27.50
2019-06-08T00:11:52.050Z,28.30
2019-06-08T00:14:23.417Z,28.57
2019-06-08T00:16:53.882Z,26.97
2019-06-08T00:19:24.114Z,28.60
2019-06-08T00:21:54.360Z,27.60
2019-06-08T00:24:24.656Z,28.12
2019-06-08T00:26:55.111Z,28.25
2019-06-08T00:29:25.681Z,28.62
2019-06-08T00:31:56.399Z,29.30
2019-06-08T00:34:27.864Z,28.80
2019-06-08T00:36:58.118Z,30.30
2019-06-08T00:39:28.329Z,30.15
2019-06-08T00:41:58.623Z,30.77
2019-06-08T00:44:28.782Z,31.17
2019-06-08T00:46:59.076Z,30.92
2019-06-08T00:49:29.256Z,29.63
2019-06-08T00:51:59.516Z,31.95
2019-06-08T00:54:30.001Z,31.48
2019-06-08T00:57:00.229Z,32.05
2019-06-08T00:59:30.572Z,32.42
2019-06-08T01:02:02.273Z,32.33
2019-06-08T01:04:32.920Z,32.13
2019-06-08T01:07:03.775Z,31.17
2019-06-08T01:09:34.077Z,31.10
2019-06-08T01:12:04.858Z,32.88
2019-06-08T01:14:35.200Z,34.35
2019-06-08T01:17:05.728Z,32.53
2019-06-08T01:19:36.022Z,33.70
2019-06-08T01:22:06.276Z,31.57
2019-06-08T01:24:36.680Z,32.17
2019-06-08T01:27:06.963Z,33.05
2019-06-08T01:29:37.220Z,33.50
2019-06-08T01:32:07.485Z,34.05
2019-06-08T01:34:37.812Z,34.27
2019-06-08T01:37:08.471Z,31.45
2019-06-08T01:39:38.761Z,32.48
2019-06-08T01:42:09.006Z,32.55
2019-06-08T01:44:39.411Z,31.97
2019-06-08T01:47:10.142Z,32.23
2019-06-08T01:49:40.436Z,33.75
2019-06-08T01:52:10.698Z,30.95
2019-06-08T01:54:40.971Z,33.95
2019-06-08T01:57:12.715Z,31.93
2019-06-08T01:59:43.064Z,31.05
2019-06-08T02:02:13.377Z,32.10
2019-06-08T02:04:43.689Z,30.82
2019-06-08T02:07:13.921Z,32.25
2019-06-08T02:09:44.180Z,32.80
2019-06-08T02:12:14.871Z,33.05
2019-06-08T02:14:45.155Z,33.20
2019-06-08T02:17:15.407Z,31.27
2019-06-08T02:19:46.050Z,34.65
2019-06-08T02:22:16.803Z,34.00
2019-06-08T02:24:47.462Z,33.92
2019-06-08T02:27:17.812Z,33.73
2019-06-08T02:29:48.392Z,34.13
2019-06-08T02:32:19.237Z,33.48
2019-06-08T02:34:49.579Z,34.20
2019-06-08T02:37:20.341Z,32.50
2019-06-08T02:39:50.640Z,33.73
2019-06-08T02:42:21.278Z,33.53
2019-06-08T02:44:51.645Z,32.03
2019-06-08T02:47:21.910Z,32.60
2019-06-08T02:49:52.481Z,31.75
2019-06-08T02:52:23.594Z,32.83
2019-06-08T02:54:54.495Z,31.17
2019-06-08T02:57:31.022Z,30.37
2019-06-08T03:00:03.421Z,31.20
2019-06-08T03:02:39.096Z,31.20
2019-06-08T03:05:10.376Z,30.27
2019-06-08T03:07:42.734Z,30.62
2019-06-08T03:10:13.812Z,29.95
2019-06-08T03:12:48.646Z,28.27
2019-06-08T03:15:33.825Z,29.50
2019-06-08T03:18:02.039Z,27.15
2019-06-08T03:20:33.447Z,26.60
2019-06-08T03:23:05.198Z,26.90
2019-06-08T03:25:49.002Z,26.82
2019-06-08T03:28:07.856Z,26.77
2019-06-08T03:30:45.689Z,26.90
2019-06-08T03:33:10.823Z,26.77
2019-06-08T03:35:54.086Z,26.17
2019-06-08T03:38:14.890Z,29.12
2019-06-08T03:40:45.366Z,29.20
2019-06-08T03:43:16.981Z,27.65
2019-06-08T03:45:47.306Z,27.62
2019-06-08T03:48:17.886Z,27.02
2019-06-08T03:50:48.547Z,27.67
2019-06-08T03:53:19.374Z,27.80
2019-06-08T03:55:50.057Z,26.02
2019-06-08T03:58:20.366Z,25.88
2019-06-08T04:00:50.961Z,26.07
2019-06-08T04:03:21.253Z,25.43
2019-06-08T04:05:51.500Z,25.27
2019-06-08T04:08:21.827Z,27.20
2019-06-08T04:10:52.069Z,28.12
2019-06-08T04:13:22.316Z,26.12
2019-06-08T04:15:52.530Z,25.95
2019-06-08T04:18:22.778Z,26.50
2019-06-08T04:20:53.361Z,25.60
2019-06-08T04:23:23.835Z,24.45
2019-06-08T04:25:54.412Z,25.02
2019-06-08T04:28:24.774Z,25.62
2019-06-08T04:30:55.369Z,26.23
2019-06-08T04:33:26.023Z,26.15
2019-06-08T04:35:56.427Z,25.80
2019-06-08T04:38:27.968Z,24.52
2019-06-08T04:40:58.582Z,25.62
2019-06-08T04:43:28.870Z,24.45
2019-06-08T04:45:59.103Z,24.85
2019-06-08T04:48:29.311Z,26.02
2019-06-08T04:51:00.387Z,25.72
2019-06-08T04:53:30.685Z,24.43
2019-06-08T04:56:00.994Z,25.40
2019-06-08T04:58:31.164Z,27.75
2019-06-08T05:01:01.435Z,25.37
2019-06-08T05:03:31.666Z,24.45
2019-06-08T05:06:01.940Z,24.18
2019-06-08T05:08:32.144Z,23.22
2019-06-08T05:11:04.009Z,24.75
2019-06-08T05:13:34.225Z,22.58
2019-06-08T05:16:05.095Z,23.62
2019-06-08T05:18:35.435Z,24.25
2019-06-08T05:21:05.874Z,24.27
2019-06-08T05:23:36.101Z,25.35
2019-06-08T05:26:06.684Z,23.90
2019-06-08T05:28:37.359Z,23.85
2019-06-08T05:31:08.045Z,24.65
2019-06-08T05:33:39.215Z,23.85
2019-06-08T05:36:10.152Z,24.00
2019-06-08T05:38:41.588Z,22.45
2019-06-08T05:41:12.258Z,22.30
2019-06-08T05:43:43.596Z,23.05
2019-06-08T05:46:14.347Z,21.87
2019-06-08T05:48:45.909Z,22.35
2019-06-08T05:51:16.708Z,21.97
2019-06-08T05:53:47.913Z,22.35
2019-06-08T05:56:18.520Z,21.48
2019-06-08T05:58:50.169Z,21.75
2019-06-08T06:01:20.991Z,22.17
2019-06-08T06:03:52.860Z,20.77
2019-06-08T06:06:23.186Z,21.33
2019-06-08T06:08:53.426Z,21.55
2019-06-08T06:11:24.117Z,24.92
2019-06-08T06:13:54.561Z,21.52
2019-06-08T06:16:24.829Z,20.02
2019-06-08T06:18:55.175Z,21.20
2019-06-08T06:21:25.495Z,20.08
2019-06-08T06:23:56.066Z,20.65
2019-06-08T06:26:27.379Z,19.98
2019-06-08T06:28:58.012Z,20.50
2019-06-08T06:31:28.892Z,19.87
2019-06-08T06:33:59.566Z,19.55
2019-06-08T06:36:29.952Z,19.82
2019-06-08T06:39:00.210Z,18.37
2019-06-08T06:41:30.451Z,18.25
2019-06-08T06:44:00.692Z,19.23
2019-06-08T06:46:30.914Z,17.32
2019-06-08T06:49:01.169Z,17.90
2019-06-08T06:51:33.867Z,18.65
2019-06-08T06:54:03.832Z,16.57
2019-06-08T06:56:34.427Z,16.42
2019-06-08T06:59:05.196Z,16.95
2019-06-08T07:01:35.515Z,16.37
2019-06-08T07:04:05.742Z,16.05
2019-06-08T07:06:36.067Z,15.75
2019-06-08T07:09:07.406Z,15.23
2019-06-08T07:11:38.075Z,14.58
2019-06-08T07:14:08.376Z,15.70
2019-06-08T07:16:38.652Z,14.20
2019-06-08T07:19:08.968Z,14.33
2019-06-08T07:21:42.011Z,13.68
2019-06-08T07:24:11.162Z,13.78
2019-06-08T07:26:41.467Z,13.53
2019-06-08T07:29:11.815Z,13.58
2019-06-08T07:31:41.981Z,13.15
2019-06-08T07:34:12.730Z,13.58
2019-06-08T07:36:43.070Z,13.58
2019-06-08T07:39:13.421Z,12.73
2019-06-08T07:41:43.800Z,13.65
2019-06-08T07:44:14.375Z,13.10
2019-06-08T07:46:45.060Z,12.82
2019-06-08T07:49:15.351Z,12.50
2019-06-08T07:51:58.843Z,12.75
2019-06-08T07:54:21.114Z,12.35
2019-06-08T07:56:52.692Z,12.93
2019-06-08T07:59:23.612Z,12.17
2019-06-08T08:01:56.118Z,12.85
2019-06-08T08:04:26.692Z,13.35
2019-06-08T08:06:56.968Z,13.20
2019-06-08T08:09:27.211Z,13.70
2019-06-08T08:11:57.522Z,14.07
2019-06-08T08:14:27.797Z,13.48
2019-06-08T08:16:59.117Z,13.83
2019-06-08T08:19:35.447Z,12.45
2019-06-08T08:22:19.577Z,13.88
2019-06-08T08:24:38.710Z,13.68
2019-06-08T08:27:09.390Z,12.98
2019-06-08T08:29:39.705Z,13.25
2019-06-08T08:32:10.295Z,12.60
2019-06-08T08:34:40.574Z,13.18
2019-06-08T08:37:10.823Z,11.70
2019-06-08T08:39:41.110Z,12.30
2019-06-08T08:42:11.865Z,12.63
2019-06-08T08:44:42.654Z,13.65
2019-06-08T08:47:12.975Z,11.88
2019-06-08T08:49:43.238Z,11.30
2019-06-08T08:52:13.458Z,10.60
2019-06-08T08:54:43.699Z,9.55
2019-06-08T08:57:13.912Z,10.18
2019-06-08T08:59:44.186Z,10.40
2019-06-08T09:02:14.708Z,10.15
2019-06-08T09:04:47.606Z,11.80
2019-06-08T09:07:18.455Z,12.35
2019-06-08T09:09:48.834Z,11.00
2019-06-08T09:12:19.130Z,11.03
2019-06-08T09:14:51.648Z,10.48
2019-06-08T09:17:22.025Z,11.00
2019-06-08T09:19:55.938Z,10.45
2019-06-08T09:22:25.173Z,10.35
2019-06-08T09:25:01.138Z,10.53
2019-06-08T09:27:30.468Z,12.07
2019-06-08T09:30:04.395Z,10.43
2019-06-08T09:32:33.390Z,9.28
2019-06-08T09:35:05.329Z,9.85
2019-06-08T09:37:37.553Z,10.10
2019-06-08T09:40:08.870Z,9.58
2019-06-08T09:42:39.515Z,10.38
2019-06-08T09:45:10.681Z,11.28
2019-06-08T09:47:41.375Z,11.18
2019-06-08T09:50:12.179Z,10.53
2019-06-08T09:52:42.781Z,11.05
2019-06-08T09:55:13.155Z,11.40
2019-06-08T09:57:43.396Z,11.60
2019-06-08T10:00:18.325Z,12.05
2019-06-08T10:02:47.876Z,12.98
2019-06-08T10:05:18.633Z,11.93
2019-06-08T10:07:49.424Z,11.05
2019-06-08T10:10:20.162Z,12.47
2019-06-08T10:12:50.570Z,11.65
2019-06-08T10:15:22.470Z,12.30
2019-06-08T10:17:54.705Z,12.40
2019-06-08T10:20:28.833Z,12.75
2019-06-08T10:23:01.528Z,11.05
2019-06-08T10:25:31.361Z,11.18
2019-06-08T10:28:07.833Z,11.97
2019-06-08T10:30:34.470Z,10.82
2019-06-08T10:33:07.155Z,12.25
2019-06-08T10:35:38.255Z,12.58
2019-06-08T10:38:11.993Z,12.73
2019-06-08T10:41:08.607Z,11.43
2019-06-08T10:43:32.495Z,12.05
2019-06-08T10:46:08.447Z,11.70
2019-06-08T10:48:37.468Z,12.30
2019-06-08T10:51:10.757Z,12.18
2019-06-08T10:53:51.915Z,11.90
2019-06-08T10:56:12.301Z,12.43
2019-06-08T10:58:43.157Z,12.47
2019-06-08T11:01:13.863Z,12.18
2019-06-08T11:03:44.127Z,11.97
2019-06-08T11:06:15.852Z,12.50
2019-06-08T11:08:46.565Z,12.07
2019-06-08T11:11:19.494Z,12.10
2019-06-08T11:13:50.443Z,12.10
2019-06-08T11:16:21.332Z,12.63
2019-06-08T11:18:52.342Z,12.65
2019-06-08T11:21:22.770Z,12.35
2019-06-08T11:24:05.743Z,13.08
2019-06-08T11:26:25.422Z,12.40
2019-06-08T11:28:58.424Z,11.88
2019-06-08T11:31:31.808Z,12.13
2019-06-08T11:34:00.459Z,11.95
2019-06-08T11:36:31.891Z,12.33
2019-06-08T11:39:02.557Z,12.70
2019-06-08T11:41:33.981Z,11.83
2019-06-08T11:44:05.461Z,12.55
2019-06-08T11:46:38.439Z,13.80
2019-06-08T11:49:13.469Z,13.93
2019-06-08T11:51:40.826Z,14.58
2019-06-08T11:54:27.359Z,15.45
2019-06-08T11:56:43.843Z,15.48
2019-06-08T11:59:15.519Z,16.32
2019-06-08T12:01:58.582Z,16.42
2019-06-08T12:04:29.543Z,15.32
2019-06-08T12:07:00.294Z,16.05
2019-06-08T12:09:32.118Z,16.65
2019-06-08T12:12:02.561Z,14.93
2019-06-08T12:14:33.679Z,14.28
2019-06-08T12:17:05.203Z,13.25
2019-06-08T12:19:37.758Z,13.20
2019-06-08T12:22:08.743Z,14.43
2019-06-08T12:24:42.252Z,13.55
2019-06-08T12:27:23.791Z,13.83
2019-06-08T12:29:43.949Z,13.25
2019-06-08T12:32:15.572Z,13.08
2019-06-08T12:34:48.968Z,12.05
2019-06-08T12:37:22.387Z,12.07
2019-06-08T12:39:52.038Z,11.35
2019-06-08T12:42:25.003Z,11.35
2019-06-08T12:44:58.748Z,12.20
2019-06-08T12:47:29.928Z,11.35
2019-06-08T12:50:00.965Z,11.22
2019-06-08T12:52:32.667Z,10.93
2019-06-08T12:55:09.043Z,10.75
2019-06-08T12:57:35.958Z,11.33
2019-06-08T13:00:08.501Z,11.18
2019-06-08T13:02:39.835Z,11.35
2019-06-08T13:05:12.466Z,11.22
2019-06-08T13:07:42.712Z,10.60
2019-06-08T13:10:15.413Z,11.38
2019-06-08T13:12:47.928Z,9.58
2019-06-08T13:15:21.727Z,9.25
2019-06-08T13:17:51.274Z,9.80
2019-06-08T13:20:22.557Z,7.53
2019-06-08T13:22:53.059Z,7.37
2019-06-08T13:25:37.537Z,8.13
2019-06-08T13:27:58.299Z,9.88
2019-06-08T13:30:32.209Z,7.90
2019-06-08T13:33:01.431Z,7.90
2019-06-08T13:35:32.087Z,8.35
2019-06-08T13:38:02.814Z,8.68
2019-06-08T13:40:33.084Z,8.13
2019-06-08T13:43:03.347Z,9.20
2019-06-08T13:45:33.673Z,8.25
2019-06-08T13:48:05.296Z,8.98
2019-06-08T13:50:35.978Z,9.13
2019-06-08T13:53:10.614Z,8.80
2019-06-08T13:55:49.482Z,8.93
2019-06-08T13:58:11.355Z,10.10
2019-06-08T14:00:42.023Z,10.15
2019-06-08T14:03:15.425Z,10.80
2019-06-08T14:05:47.799Z,10.82
2019-06-08T14:08:20.505Z,10.13
2019-06-08T14:10:51.133Z,10.72
2019-06-08T14:13:27.834Z,11.00
2019-06-08T14:15:53.504Z,11.68
2019-06-08T14:18:28.079Z,11.28
2019-06-08T14:20:58.439Z,11.20
2019-06-08T14:23:29.311Z,11.68
2019-06-08T14:26:01.070Z,11.50
2019-06-08T14:28:31.718Z,11.53
2019-06-08T14:31:02.577Z,11.50
2019-06-08T14:33:33.791Z,14.30
2019-06-08T14:36:04.816Z,14.23
2019-06-08T14:38:40.954Z,13.30
2019-06-08T14:41:07.710Z,13.65
2019-06-08T14:43:38.725Z,12.98
2019-06-08T14:46:08.979Z,14.75
2019-06-08T14:48:39.644Z,28.42
2019-06-08T14:51:09.926Z,14.18
2019-06-08T14:53:40.185Z,18.07
2019-06-08T14:56:10.430Z,13.10
2019-06-08T14:58:40.739Z,13.28
2019-06-08T15:01:10.975Z,13.20
2019-06-08T15:03:41.396Z,12.85
2019-06-08T15:06:14.117Z,13.55
2019-06-08T15:08:44.904Z,16.65
2019-06-08T15:11:23.346Z,14.60
2019-06-08T15:13:51.377Z,13.85
2019-06-08T15:16:21.688Z,14.25
2019-06-08T15:18:52.464Z,13.75
2019-06-08T15:21:25.277Z,13.75
2019-06-08T15:23:54.843Z,12.82
2019-06-08T15:26:32.822Z,13.80
2019-06-08T15:28:58.746Z,14.65
2019-06-08T15:31:31.624Z,14.68
2019-06-08T15:34:04.123Z,14.45
2019-06-08T15:36:34.542Z,14.93
2019-06-08T15:39:07.809Z,15.45
2019-06-08T15:41:38.497Z,22.02
2019-06-08T15:44:09.098Z,17.62
2019-06-08T15:46:41.059Z,14.13
2019-06-08T15:49:12.217Z,14.18
2019-06-08T15:51:42.657Z,15.65
2019-06-08T15:54:12.892Z,16.40
2019-06-08T15:56:49.541Z,16.52
2019-06-08T15:59:15.041Z,16.25
2019-06-08T16:01:45.355Z,16.90
2019-06-08T16:04:15.580Z,17.40
2019-06-08T16:06:45.934Z,17.52
2019-06-08T16:09:16.251Z,19.02
2019-06-08T16:11:46.839Z,20.80
2019-06-08T16:14:17.500Z,19.12
2019-06-08T16:16:47.859Z,19.25
2019-06-08T16:19:18.187Z,20.77
2019-06-08T16:21:48.445Z,20.55
2019-06-08T16:24:18.679Z,21.40
2019-06-08T16:26:53.105Z,21.93
2019-06-08T16:29:21.046Z,21.73
2019-06-08T16:31:51.407Z,20.75
2019-06-08T16:34:21.668Z,20.90
2019-06-08T16:36:51.958Z,22.10
2019-06-08T16:39:23.811Z,22.30
2019-06-08T16:41:56.208Z,25.23
2019-06-08T16:44:28.080Z,24.72
2019-06-08T16:46:58.612Z,22.35
2019-06-08T16:49:29.206Z,25.65
2019-06-08T16:51:59.505Z,24.87
2019-06-08T16:54:32.851Z,25.35
2019-06-08T16:57:09.852Z,24.75
2019-06-08T16:59:36.895Z,25.27
2019-06-08T17:02:07.610Z,24.02
2019-06-08T17:04:39.156Z,24.67
2019-06-08T17:07:09.954Z,23.83
2019-06-08T17:09:46.669Z,22.65
2019-06-08T17:12:17.264Z,24.12
2019-06-08T17:14:50.343Z,24.00
2019-06-08T17:17:22.714Z,24.40
2019-06-08T17:19:57.951Z,24.35
2019-06-08T17:22:32.253Z,24.92
2019-06-08T17:25:01.337Z,27.98
2019-06-08T17:27:34.615Z,32.13
2019-06-08T17:30:09.822Z,24.17
2019-06-08T17:32:42.364Z,25.00
2019-06-08T17:35:15.978Z,25.32
2019-06-08T17:37:46.389Z,25.25
2019-06-08T17:40:16.711Z,24.75
2019-06-08T17:42:47.319Z,24.47
2019-06-08T17:45:18.584Z,23.32
2019-06-08T17:47:48.907Z,22.32
2019-06-08T17:50:20.350Z,21.62
2019-06-08T17:52:50.747Z,20.72
2019-06-08T17:55:21.330Z,21.30
2019-06-08T17:57:53.618Z,21.80
2019-06-08T18:00:24.716Z,18.77
2019-06-08T18:02:57.788Z,18.00
2019-06-08T18:05:28.493Z,16.70
2019-06-08T18:07:59.248Z,16.70
2019-06-08T18:10:30.734Z,17.07
2019-06-08T18:13:01.403Z,16.12
2019-06-08T18:15:32.085Z,16.10
2019-06-08T18:18:02.643Z,15.03
2019-06-08T18:20:34.262Z,15.78
2019-06-08T18:23:05.156Z,15.60
2019-06-08T18:25:38.760Z,15.63
2019-06-08T18:28:13.205Z,16.10
2019-06-08T18:30:42.927Z,17.23
2019-06-08T18:33:12.094Z,15.98
2019-06-08T18:35:44.471Z,16.85
2019-06-08T18:38:14.702Z,15.45
2019-06-08T18:40:45.585Z,15.53
2019-06-08T18:43:17.086Z,16.82
2019-06-08T18:45:50.253Z,17.48
2019-06-08T18:48:22.310Z,17.30
2019-06-08T18:50:53.207Z,16.40
2019-06-08T18:53:23.560Z,17.07
2019-06-08T18:55:53.956Z,17.17
2019-06-08T18:58:25.224Z,17.57
2019-06-08T19:00:57.528Z,16.35
2019-06-08T19:03:28.397Z,17.42
2019-06-08T19:06:01.066Z,15.88
2019-06-08T19:08:32.263Z,17.48
2019-06-08T19:11:02.900Z,16.90
2019-06-08T19:13:34.071Z,16.70
2019-06-08T19:16:07.361Z,16.57
2019-06-08T19:18:42.880Z,16.97
2019-06-08T19:21:09.239Z,17.15
2019-06-08T19:23:42.025Z,16.02
2019-06-08T19:26:11.876Z,15.15
2019-06-08T19:28:45.962Z,15.20
2019-06-08T19:31:14.137Z,13.03
2019-06-08T19:33:47.956Z,13.10
2019-06-08T19:36:17.173Z,12.28
2019-06-08T19:38:54.130Z,12.13
2019-06-08T19:41:19.681Z,11.55
2019-06-08T19:43:54.532Z,11.10
2019-06-08T19:46:22.693Z,10.80
2019-06-08T19:48:55.511Z,11.35
2019-06-08T19:51:27.823Z,11.35
2019-06-08T19:53:58.564Z,10.75
2019-06-08T19:56:29.553Z,11.12
2019-06-08T19:59:04.766Z,10.70
2019-06-08T20:01:31.785Z,11.55
2019-06-08T20:04:02.027Z,11.28
2019-06-08T20:06:32.602Z,10.78
2019-06-08T20:09:03.093Z,9.90
2019-06-08T20:11:37.261Z,10.18
2019-06-08T20:14:08.145Z,10.38
2019-06-08T20:16:39.111Z,10.00
2019-06-08T20:19:10.374Z,9.45
2019-06-08T20:21:40.992Z,9.38
2019-06-08T20:24:11.869Z,9.60
2019-06-08T20:26:42.313Z,8.90
2019-06-08T20:29:16.453Z,8.50
2019-06-08T20:31:48.576Z,8.18
2019-06-08T20:34:18.616Z,7.75
2019-06-08T20:36:48.908Z,6.80
2019-06-08T20:39:19.152Z,10.00
2019-06-08T20:41:51.535Z,6.10
2019-06-08T20:44:21.314Z,5.17
2019-06-08T20:46:52.797Z,4.95
2019-06-08T20:49:23.823Z,5.03
2019-06-08T20:51:54.221Z,5.25
2019-06-08T20:54:24.485Z,4.87
2019-06-08T20:56:54.722Z,4.03
2019-06-08T20:59:30.889Z,3.62
2019-06-08T21:01:58.918Z,4.55
2019-06-08T21:04:30.346Z,4.20
2019-06-08T21:07:01.021Z,4.10
2019-06-08T21:09:31.404Z,4.22
2019-06-08T21:12:01.651Z,4.15
2019-06-08T21:14:32.473Z,4.22
2019-06-08T21:17:03.137Z,3.80
2019-06-08T21:19:33.441Z,4.22
2019-06-08T21:22:03.707Z,4.67
2019-06-08T21:24:33.944Z,4.20
2019-06-08T21:27:04.188Z,4.87
2019-06-08T21:29:47.586Z,4.70
2019-06-08T21:32:08.196Z,4.55
2019-06-08T21:34:40.671Z,3.95
2019-06-08T21:37:11.021Z,4.28
2019-06-08T21:39:41.622Z,4.20
2019-06-08T21:42:11.913Z,4.30
2019-06-08T21:44:42.544Z,3.60
2019-06-08T21:47:12.803Z,4.20
2019-06-08T21:49:43.100Z,4.00
2019-06-08T21:52:13.322Z,2.87
2019-06-08T21:54:43.557Z,3.37
2019-06-08T21:57:14.185Z,3.35
2019-06-08T21:59:47.297Z,3.65
2019-06-08T22:02:18.253Z,3.27
2019-06-08T22:04:49.648Z,3.17
2019-06-08T22:07:20.204Z,3.50
2019-06-08T22:09:50.447Z,3.50
2019-06-08T22:12:20.690Z,3.30
2019-06-08T22:14:52.522Z,3.08
2019-06-08T22:17:23.657Z,3.27
2019-06-08T22:19:55.034Z,3.10
2019-06-08T22:22:25.647Z,2.90
2019-06-08T22:24:59.358Z,3.05
2019-06-08T22:27:28.639Z,3.27
2019-06-08T22:30:00.984Z,2.87
2019-06-08T22:32:31.590Z,3.10
2019-06-08T22:35:03.287Z,2.95
2019-06-08T22:37:34.030Z,2.80
2019-06-08T22:40:08.490Z,3.30
2019-06-08T22:42:38.870Z,3.10
2019-06-08T22:45:09.843Z,3.50
2019-06-08T22:47:40.528Z,2.92
2019-06-08T22:50:11.780Z,3.40
2019-06-08T22:52:42.427Z,3.70
2019-06-08T22:55:13.483Z,3.33
2019-06-08T22:57:43.787Z,3.42
2019-06-08T23:00:19.941Z,2.77
2019-06-08T23:02:48.589Z,3.40
2019-06-08T23:05:19.730Z,3.12
2019-06-08T23:07:50.397Z,3.40
2019-06-08T23:10:20.680Z,3.62
2019-06-08T23:12:50.980Z,3.20
2019-06-08T23:15:21.223Z,2.72
2019-06-08T23:17:51.528Z,3.05
2019-06-08T23:20:21.705Z,3.45
2019-06-08T23:22:51.889Z,3.17
2019-06-08T23:25:22.103Z,3.37
2019-06-08T23:27:52.327Z,3.22
2019-06-08T23:30:23.458Z,3.87
2019-06-08T23:32:54.098Z,3.77
2019-06-08T23:35:24.735Z,3.72
2019-06-08T23:37:56.842Z,3.35
2019-06-08T23:40:27.643Z,3.60
2019-06-08T23:43:00.073Z,3.67
2019-06-08T23:45:32.267Z,3.67
2019-06-08T23:48:02.868Z,3.77
2019-06-08T23:50:34.760Z,3.45
2019-06-08T23:53:07.736Z,3.90
2019-06-08T23:55:37.596Z,3.90
2019-06-08T23:58:09.852Z,4.30
